createdAt,value
2022-12-24T00:01:38.294Z,80.31
2022-12-24T00:04:08.604Z,80.35
2022-12-24T00:06:36.969Z,80.01
2022-12-24T00:09:05.499Z,79.73
2022-12-24T00:11:34.004Z,79.29
2022-12-24T00:14:02.599Z,78.99
2022-12-24T00:16:32.444Z,78.83
2022-12-24T00:19:00.840Z,78.56
2022-12-24T00:21:29.225Z,78.42
2022-12-24T00:23:57.663Z,78.36
2022-12-24T00:26:26.019Z,78.30
2022-12-24T00:28:54.527Z,77.97
2022-12-24T00:31:23.096Z,77.84
2022-12-24T00:33:53.173Z,77.84
2022-12-24T00:36:21.991Z,77.82
2022-12-24T00:38:50.575Z,77.82
2022-12-24T00:41:29.182Z,77.71
2022-12-24T00:44:00.440Z,77.85
2022-12-24T00:46:31.220Z,77.96
2022-12-24T00:49:01.234Z,78.15
2022-12-24T00:51:30.173Z,78.38
2022-12-24T00:53:58.739Z,78.52
2022-12-24T00:56:27.408Z,78.28
2022-12-24T00:58:56.387Z,78.55
2022-12-24T01:01:25.096Z,78.52
2022-12-24T01:04:13.962Z,78.34
2022-12-24T01:06:42.705Z,78.34
2022-12-24T01:09:11.249Z,78.12
2022-12-24T01:11:39.862Z,78.14
2022-12-24T01:14:08.193Z,78.09
2022-12-24T01:16:36.791Z,77.98
2022-12-24T01:19:05.240Z,78.04
2022-12-24T01:21:33.645Z,77.89
2022-12-24T01:24:03.374Z,78.12
2022-12-24T01:26:31.747Z,78.08
2022-12-24T01:29:00.643Z,77.78
2022-12-24T01:31:29.035Z,77.62
2022-12-24T01:33:57.912Z,77.19
2022-12-24T01:36:26.287Z,77.04
2022-12-24T01:38:54.676Z,76.85
2022-12-24T01:41:42.389Z,76.38
2022-12-24T01:44:31.515Z,75.94
2022-12-24T01:47:09.909Z,76.19
2022-12-24T01:49:40.719Z,76.00
2022-12-24T01:52:11.905Z,75.65
2022-12-24T01:54:44.624Z,75.60
2022-12-24T01:57:19.228Z,75.75
2022-12-24T01:59:52.086Z,75.78
2022-12-24T02:02:21.499Z,75.72
2022-12-24T02:04:57.129Z,75.61
2022-12-24T02:07:25.850Z,75.88
2022-12-24T02:09:57.180Z,75.97
2022-12-24T02:12:28.347Z,76.04
2022-12-24T02:14:57.075Z,76.06
2022-12-24T02:17:32.565Z,76.06
2022-12-24T02:20:36.599Z,75.90
2022-12-24T02:23:25.823Z,76.11
2022-12-24T02:26:15.072Z,75.94
2022-12-24T02:29:10.651Z,76.11
2022-12-24T02:31:44.226Z,76.39
2022-12-24T02:34:19.398Z,76.64
2022-12-24T02:36:52.540Z,76.76
2022-12-24T02:39:28.407Z,76.97
2022-12-24T02:42:08.893Z,77.00
2022-12-24T02:44:42.442Z,77.23
2022-12-24T02:47:14.275Z,77.26
2022-12-24T02:49:45.633Z,77.39
2022-12-24T02:52:30.171Z,77.29
2022-12-24T02:54:59.896Z,77.39
2022-12-24T02:57:39.031Z,77.61
2022-12-24T03:00:09.668Z,77.52
2022-12-24T03:03:07.581Z,77.32
2022-12-24T03:05:43.610Z,77.92
2022-12-24T03:08:18.157Z,77.83
2022-12-24T03:10:54.903Z,77.81
2022-12-24T03:13:25.603Z,77.61
2022-12-24T03:15:54.029Z,77.62
2022-12-24T03:18:26.159Z,77.99
2022-12-24T03:21:01.816Z,77.77
2022-12-24T03:23:30.789Z,78.19
2022-12-24T03:26:02.757Z,78.12
2022-12-24T03:28:31.628Z,77.83
2022-12-24T03:31:04.735Z,77.93
2022-12-24T03:33:35.612Z,77.79
2022-12-24T03:36:05.496Z,78.04
2022-12-24T03:38:34.682Z,77.88
2022-12-24T03:41:04.220Z,77.84
2022-12-24T03:43:33.082Z,77.65
2022-12-24T03:46:05.751Z,77.86
2022-12-24T03:48:36.595Z,77.84
2022-12-24T03:51:05.845Z,77.79
2022-12-24T03:53:34.190Z,77.74
2022-12-24T03:56:02.588Z,77.96
2022-12-24T03:58:30.975Z,77.92
2022-12-24T04:00:59.336Z,77.88
2022-12-24T04:03:27.789Z,77.96
2022-12-24T04:06:04.319Z,77.74
2022-12-24T04:08:33.370Z,77.51
2022-12-24T04:11:07.795Z,77.69
2022-12-24T04:13:38.282Z,77.32
2022-12-24T04:16:08.593Z,77.89
2022-12-24T04:18:37.139Z,77.92
2022-12-24T04:21:09.314Z,77.70
2022-12-24T04:23:39.667Z,77.58
2022-12-24T04:26:09.834Z,77.60
2022-12-24T04:28:39.868Z,77.81
2022-12-24T04:31:10.235Z,77.81
2022-12-24T04:33:39.053Z,77.85
2022-12-24T04:36:12.814Z,77.83
2022-12-24T04:38:41.367Z,77.59
2022-12-24T04:41:19.053Z,78.26
2022-12-24T04:43:51.956Z,78.60
2022-12-24T04:46:22.312Z,78.60
2022-12-24T04:48:53.196Z,79.04
2022-12-24T04:51:23.581Z,79.39
2022-12-24T04:53:52.714Z,79.42
2022-12-24T04:56:23.172Z,79.41
2022-12-24T04:58:51.743Z,79.63
2022-12-24T05:01:21.874Z,79.70
2022-12-24T05:03:50.947Z,79.31
2022-12-24T05:06:21.416Z,79.61
2022-12-24T05:08:51.322Z,79.46
2022-12-24T05:11:19.637Z,80.19
2022-12-24T05:13:48.434Z,80.31
2022-12-24T05:16:18.216Z,80.58
2022-12-24T05:18:47.001Z,80.32
2022-12-24T05:21:17.470Z,80.27
2022-12-24T05:24:03.505Z,80.90
2022-12-24T05:26:35.840Z,80.41
2022-12-24T05:29:05.941Z,80.93
2022-12-24T05:31:36.181Z,80.65
2022-12-24T05:34:04.720Z,80.51
2022-12-24T05:36:33.138Z,80.63
2022-12-24T05:39:01.572Z,81.02
2022-12-24T05:41:30.253Z,80.91
2022-12-24T05:43:59.960Z,80.86
2022-12-24T05:46:28.459Z,80.69
2022-12-24T05:48:56.874Z,81.19
2022-12-24T05:51:26.917Z,81.41
2022-12-24T05:53:55.342Z,81.20
2022-12-24T05:56:25.394Z,81.57
2022-12-24T05:58:54.710Z,81.23
2022-12-24T06:01:24.825Z,80.83
2022-12-24T06:03:54.092Z,81.04
2022-12-24T06:06:24.741Z,80.57
2022-12-24T06:08:54.540Z,80.87
2022-12-24T06:11:24.867Z,81.26
2022-12-24T06:13:53.964Z,80.43
2022-12-24T06:16:24.877Z,80.18
2022-12-24T06:18:53.753Z,79.03
2022-12-24T06:21:22.420Z,77.99
2022-12-24T06:23:50.948Z,77.10
2022-12-24T06:26:22.068Z,76.29
2022-12-24T06:28:51.909Z,75.89
2022-12-24T06:31:22.321Z,75.60
2022-12-24T06:33:53.413Z,75.30
2022-12-24T06:36:24.555Z,75.40
2022-12-24T06:38:54.467Z,74.37
2022-12-24T06:41:23.750Z,74.20
2022-12-24T06:43:53.890Z,74.19
2022-12-24T06:46:22.837Z,73.33
2022-12-24T06:48:52.745Z,73.46
2022-12-24T06:51:21.516Z,72.99
2022-12-24T06:53:51.553Z,72.62
2022-12-24T06:56:21.035Z,72.99
2022-12-24T06:58:49.449Z,72.38
2022-12-24T07:01:19.555Z,72.75
2022-12-24T07:03:48.846Z,72.64
2022-12-24T07:06:20.692Z,72.74
2022-12-24T07:08:49.017Z,72.40
2022-12-24T07:11:18.094Z,72.62
2022-12-24T07:13:47.709Z,72.49
2022-12-24T07:16:16.737Z,72.41
2022-12-24T07:18:45.322Z,72.24
2022-12-24T07:21:13.765Z,72.56
2022-12-24T07:23:43.668Z,72.71
2022-12-24T07:26:12.134Z,71.97
2022-12-24T07:28:40.495Z,72.54
2022-12-24T07:31:08.920Z,71.98
2022-12-24T07:33:37.336Z,72.19
2022-12-24T07:36:08.081Z,72.26
2022-12-24T07:38:37.076Z,71.99
2022-12-24T07:41:07.125Z,71.91
2022-12-24T07:43:35.478Z,71.57
2022-12-24T07:46:04.186Z,71.46
2022-12-24T07:48:33.498Z,71.44
2022-12-24T07:51:02.208Z,71.27
2022-12-24T07:53:32.104Z,71.60
2022-12-24T07:56:00.653Z,71.43
2022-12-24T07:58:30.382Z,71.17
2022-12-24T08:01:00.577Z,70.61
2022-12-24T08:03:29.459Z,70.61
2022-12-24T08:05:58.492Z,70.07
2022-12-24T08:08:27.303Z,70.38
2022-12-24T08:10:55.690Z,70.18
2022-12-24T08:13:24.067Z,69.15
2022-12-24T08:15:53.893Z,69.46
2022-12-24T08:18:22.250Z,69.32
2022-12-24T08:20:50.805Z,69.07
2022-12-24T08:23:19.508Z,69.04
2022-12-24T08:25:49.271Z,68.41
2022-12-24T08:28:19.909Z,68.44
2022-12-24T08:30:49.639Z,68.62
2022-12-24T08:33:19.812Z,67.84
2022-12-24T08:35:49.950Z,67.51
2022-12-24T08:38:18.705Z,67.51
2022-12-24T08:40:48.960Z,67.53
2022-12-24T08:43:18.241Z,67.78
2022-12-24T08:45:47.406Z,67.54
2022-12-24T08:48:16.456Z,67.32
2022-12-24T08:50:46.325Z,66.96
2022-12-24T08:53:15.109Z,67.01
2022-12-24T08:55:43.505Z,66.78
2022-12-24T08:58:11.981Z,66.83
2022-12-24T09:00:40.418Z,66.43
2022-12-24T09:03:08.788Z,66.03
2022-12-24T09:05:41.140Z,65.60
2022-12-24T09:08:10.853Z,66.07
2022-12-24T09:10:39.214Z,66.12
2022-12-24T09:13:07.610Z,65.32
2022-12-24T09:15:35.925Z,65.23
2022-12-24T09:18:04.763Z,65.47
2022-12-24T09:20:34.557Z,65.56
2022-12-24T09:23:02.952Z,65.41
2022-12-24T09:25:32.737Z,65.05
2022-12-24T09:28:01.406Z,65.18
2022-12-24T09:30:29.727Z,64.55
2022-12-24T09:32:58.094Z,64.81
2022-12-24T09:35:26.507Z,64.41
2022-12-24T09:38:03.008Z,64.23
2022-12-24T09:40:40.606Z,64.04
2022-12-24T09:43:17.256Z,64.12
2022-12-24T09:45:56.248Z,64.15
2022-12-24T09:48:29.084Z,64.16
2022-12-24T09:51:03.346Z,63.94
2022-12-24T09:53:41.080Z,64.04
2022-12-24T09:56:16.431Z,64.22
2022-12-24T09:58:47.891Z,64.21
2022-12-24T10:01:18.703Z,64.21
2022-12-24T10:03:48.068Z,64.29
2022-12-24T10:06:22.325Z,64.14
2022-12-24T10:09:07.077Z,63.93
2022-12-24T10:11:46.138Z,63.97
2022-12-24T10:14:27.289Z,63.78
2022-12-24T10:17:04.236Z,63.99
2022-12-24T10:19:45.221Z,63.89
2022-12-24T10:22:25.695Z,64.11
2022-12-24T10:25:01.460Z,64.21
2022-12-24T10:27:36.757Z,63.88
2022-12-24T10:30:17.321Z,63.82
2022-12-24T10:32:48.929Z,64.08
2022-12-24T10:35:24.179Z,63.44
2022-12-24T10:37:52.738Z,63.57
2022-12-24T10:40:30.138Z,63.38
2022-12-24T10:43:00.161Z,63.56
2022-12-24T10:45:37.564Z,63.21
2022-12-24T10:48:10.590Z,63.22
2022-12-24T10:50:42.556Z,63.41
2022-12-24T10:53:18.780Z,62.97
2022-12-24T10:55:48.775Z,63.00
2022-12-24T10:58:20.834Z,63.18
2022-12-24T11:00:53.406Z,62.99
2022-12-24T11:03:25.761Z,62.90
2022-12-24T11:06:05.958Z,62.83
2022-12-24T11:08:35.013Z,62.78
2022-12-24T11:11:06.035Z,62.84
2022-12-24T11:13:39.719Z,62.96
2022-12-24T11:16:16.618Z,62.76
2022-12-24T11:18:51.903Z,62.87
2022-12-24T11:21:23.107Z,62.97
2022-12-24T11:23:54.035Z,62.59
2022-12-24T11:26:24.589Z,62.36
2022-12-24T11:29:12.509Z,62.09
2022-12-24T11:31:41.034Z,62.45
2022-12-24T11:34:28.724Z,62.11
2022-12-24T11:37:14.839Z,62.03
2022-12-24T11:39:47.651Z,62.04
2022-12-24T11:42:27.454Z,61.84
2022-12-24T11:44:59.046Z,62.14
2022-12-24T11:47:35.296Z,62.16
2022-12-24T11:50:24.995Z,61.76
2022-12-24T11:53:00.279Z,62.05
2022-12-24T11:55:41.761Z,62.07
2022-12-24T11:58:22.566Z,61.77
2022-12-24T12:00:54.013Z,62.11
2022-12-24T12:03:30.142Z,61.90
2022-12-24T12:06:00.959Z,62.24
2022-12-24T12:08:31.315Z,61.99
2022-12-24T12:11:01.033Z,62.14
2022-12-24T12:13:33.490Z,61.85
2022-12-24T12:16:15.684Z,61.72
2022-12-24T12:18:50.377Z,61.71
2022-12-24T12:21:21.738Z,61.61
2022-12-24T12:23:53.779Z,61.63
2022-12-24T12:26:27.335Z,61.50
2022-12-24T12:28:59.732Z,61.62
2022-12-24T12:31:35.442Z,61.60
2022-12-24T12:34:10.363Z,61.42
2022-12-24T12:36:44.860Z,61.40
2022-12-24T12:39:13.240Z,61.48
2022-12-24T12:41:51.830Z,61.22
2022-12-24T12:44:49.839Z,61.59
2022-12-24T12:47:31.617Z,62.03
2022-12-24T12:50:09.713Z,62.33
2022-12-24T12:52:55.440Z,62.72
2022-12-24T12:55:34.710Z,63.16
2022-12-24T12:58:09.478Z,63.47
2022-12-24T13:00:40.504Z,63.60
2022-12-24T13:03:39.884Z,62.90
2022-12-24T13:06:35.598Z,62.91
2022-12-24T13:09:28.307Z,62.83
2022-12-24T13:12:20.825Z,62.40
2022-12-24T13:15:02.609Z,62.68
2022-12-24T13:18:00.871Z,62.07
2022-12-24T13:20:33.108Z,62.25
2022-12-24T13:23:05.111Z,61.92
2022-12-24T13:25:38.268Z,61.67
2022-12-24T13:28:34.150Z,61.04
2022-12-24T13:31:25.714Z,60.84
2022-12-24T13:33:55.858Z,61.21
2022-12-24T13:36:26.055Z,61.09
2022-12-24T13:38:57.152Z,61.14
2022-12-24T13:41:58.915Z,60.73
2022-12-24T13:44:32.929Z,61.02
2022-12-24T13:47:28.152Z,60.93
2022-12-24T13:50:15.507Z,60.82
2022-12-24T13:52:54.124Z,60.91
2022-12-24T13:55:23.531Z,61.06
2022-12-24T13:57:58.790Z,60.83
2022-12-24T14:00:33.137Z,61.11
2022-12-24T14:03:05.907Z,60.90
2022-12-24T14:05:38.612Z,61.02
2022-12-24T14:08:12.604Z,61.13
2022-12-24T14:10:44.797Z,61.01
2022-12-24T14:13:54.889Z,60.67
2022-12-24T14:16:24.620Z,61.02
2022-12-24T14:19:00.771Z,61.21
2022-12-24T14:21:33.097Z,61.42
2022-12-24T14:24:05.309Z,61.48
2022-12-24T14:26:37.796Z,61.39
2022-12-24T14:29:22.839Z,61.32
2022-12-24T14:31:53.796Z,61.50
2022-12-24T14:34:22.920Z,61.29
2022-12-24T14:36:55.463Z,61.35
2022-12-24T14:39:30.540Z,61.31
2022-12-24T14:42:17.361Z,61.37
2022-12-24T14:44:55.814Z,61.54
2022-12-24T14:47:34.712Z,61.61
2022-12-24T14:50:35.471Z,61.33
2022-12-24T14:53:19.042Z,61.73
2022-12-24T14:55:50.484Z,61.73
2022-12-24T14:58:27.929Z,61.95
2022-12-24T15:00:58.916Z,61.85
2022-12-24T15:03:29.018Z,62.16
2022-12-24T15:06:00.474Z,62.38
2022-12-24T15:08:32.099Z,62.35
2022-12-24T15:11:08.314Z,62.33
2022-12-24T15:13:39.983Z,62.47
2022-12-24T15:16:11.858Z,62.97
2022-12-24T15:18:44.463Z,63.03
2022-12-24T15:21:19.900Z,63.30
2022-12-24T15:23:50.538Z,63.10
2022-12-24T15:26:26.947Z,63.57
2022-12-24T15:29:02.790Z,63.91
2022-12-24T15:31:32.891Z,64.21
2022-12-24T15:34:01.537Z,64.03
2022-12-24T15:36:33.889Z,64.09
2022-12-24T15:39:04.157Z,64.15
2022-12-24T15:42:00.225Z,64.09
2022-12-24T15:44:31.025Z,64.33
2022-12-24T15:47:01.125Z,64.62
2022-12-24T15:49:30.866Z,64.36
2022-12-24T15:52:05.644Z,64.66
2022-12-24T15:54:34.576Z,65.56
2022-12-24T15:57:15.801Z,65.46
2022-12-24T15:59:44.340Z,65.27
2022-12-24T16:02:36.593Z,65.90
2022-12-24T16:05:30.968Z,66.21
2022-12-24T16:08:22.053Z,66.49
2022-12-24T16:10:52.905Z,66.39
2022-12-24T16:13:24.802Z,66.22
2022-12-24T16:15:56.507Z,66.80
2022-12-24T16:18:27.665Z,66.99
2022-12-24T16:20:57.664Z,66.68
2022-12-24T16:23:28.236Z,66.44
2022-12-24T16:25:56.691Z,66.91
2022-12-24T16:28:27.650Z,66.99
2022-12-24T16:30:56.885Z,67.18
2022-12-24T16:33:25.248Z,67.02
2022-12-24T16:35:53.796Z,66.74
2022-12-24T16:38:22.554Z,66.70
2022-12-24T16:40:50.821Z,67.12
2022-12-24T16:43:36.696Z,66.64
2022-12-24T16:46:08.743Z,67.23
2022-12-24T16:48:38.937Z,66.64
2022-12-24T16:51:07.273Z,67.68
2022-12-24T16:53:35.638Z,67.50
2022-12-24T16:56:04.029Z,67.17
2022-12-24T16:58:33.070Z,67.38
2022-12-24T17:01:09.965Z,67.83
2022-12-24T17:03:38.637Z,67.45
2022-12-24T17:06:09.323Z,68.03
2022-12-24T17:08:38.179Z,67.74
2022-12-24T17:11:06.911Z,67.79
2022-12-24T17:13:35.368Z,68.22
2022-12-24T17:16:03.955Z,67.79
2022-12-24T17:18:33.761Z,67.66
2022-12-24T17:21:03.689Z,67.77
2022-12-24T17:23:32.110Z,68.22
2022-12-24T17:26:00.576Z,68.65
2022-12-24T17:28:34.845Z,68.43
2022-12-24T17:31:08.080Z,68.39
2022-12-24T17:33:37.943Z,68.14
2022-12-24T17:36:06.873Z,68.62
2022-12-24T17:38:35.251Z,68.41
2022-12-24T17:41:04.125Z,68.30
2022-12-24T17:43:33.761Z,68.37
2022-12-24T17:46:06.309Z,68.39
2022-12-24T17:48:35.187Z,68.26
2022-12-24T17:51:07.138Z,69.07
2022-12-24T17:53:36.438Z,69.08
2022-12-24T17:56:05.554Z,69.35
2022-12-24T17:58:34.108Z,68.86
2022-12-24T18:01:02.466Z,69.08
2022-12-24T18:03:30.887Z,69.24
2022-12-24T18:06:05.240Z,69.14
2022-12-24T18:08:36.018Z,69.44
2022-12-24T18:11:12.083Z,69.80
2022-12-24T18:13:40.932Z,69.62
2022-12-24T18:16:20.534Z,69.90
2022-12-24T18:18:50.251Z,69.66
2022-12-24T18:21:20.263Z,69.31
2022-12-24T18:23:52.090Z,69.53
2022-12-24T18:26:21.133Z,69.93
2022-12-24T18:28:49.505Z,70.16
2022-12-24T18:31:19.754Z,69.54
2022-12-24T18:33:50.345Z,70.29
2022-12-24T18:36:20.198Z,70.24
2022-12-24T18:38:50.046Z,69.99
2022-12-24T18:41:20.790Z,70.42
2022-12-24T18:43:49.327Z,70.76
2022-12-24T18:46:19.877Z,70.81
2022-12-24T18:48:48.877Z,70.99
2022-12-24T18:51:18.403Z,70.83
2022-12-24T18:53:46.814Z,71.25
2022-12-24T18:56:18.875Z,71.18
2022-12-24T18:58:47.508Z,70.93
2022-12-24T19:01:17.782Z,70.96
2022-12-24T19:03:46.327Z,71.30
2022-12-24T19:06:14.740Z,71.54
2022-12-24T19:09:00.736Z,71.84
2022-12-24T19:11:33.751Z,71.18
2022-12-24T19:14:03.173Z,71.46
2022-12-24T19:16:37.035Z,71.63
2022-12-24T19:19:07.269Z,71.12
2022-12-24T19:21:36.236Z,71.40
2022-12-24T19:24:04.937Z,71.62
2022-12-24T19:26:34.621Z,71.67
2022-12-24T19:29:02.945Z,72.12
2022-12-24T19:31:32.244Z,72.23
2022-12-24T19:34:00.777Z,72.22
2022-12-24T19:36:31.089Z,72.25
2022-12-24T19:39:00.259Z,72.29
2022-12-24T19:41:30.656Z,72.84
2022-12-24T19:44:01.647Z,72.89
2022-12-24T19:46:32.967Z,72.81
2022-12-24T19:49:05.065Z,72.95
2022-12-24T19:51:34.200Z,72.97
2022-12-24T19:54:02.879Z,72.80
2022-12-24T19:56:33.180Z,73.14
2022-12-24T19:59:05.120Z,72.80
2022-12-24T20:01:35.112Z,72.92
2022-12-24T20:04:04.137Z,72.66
2022-12-24T20:06:35.354Z,72.87
2022-12-24T20:09:06.024Z,73.01
2022-12-24T20:11:35.187Z,73.10
2022-12-24T20:14:05.845Z,73.62
2022-12-24T20:16:35.387Z,73.32
2022-12-24T20:19:05.774Z,73.42
2022-12-24T20:21:35.212Z,73.30
2022-12-24T20:24:03.625Z,73.83
2022-12-24T20:26:32.055Z,73.92
2022-12-24T20:29:06.532Z,73.78
2022-12-24T20:31:35.435Z,74.25
2022-12-24T20:34:07.364Z,74.23
2022-12-24T20:36:39.590Z,73.94
2022-12-24T20:39:08.111Z,74.21
2022-12-24T20:41:37.309Z,74.23
2022-12-24T20:44:07.194Z,74.45
2022-12-24T20:46:35.716Z,74.39
2022-12-24T20:49:05.253Z,74.64
2022-12-24T20:51:33.841Z,74.54
2022-12-24T20:54:02.189Z,74.77
2022-12-24T20:56:31.872Z,75.04
2022-12-24T20:59:01.311Z,74.89
2022-12-24T21:01:31.585Z,74.63
2022-12-24T21:04:04.423Z,74.98
2022-12-24T21:06:33.768Z,74.95
2022-12-24T21:09:02.781Z,75.20
2022-12-24T21:11:48.723Z,74.67
2022-12-24T21:14:18.133Z,75.08
2022-12-24T21:16:48.466Z,75.21
2022-12-24T21:19:19.248Z,75.15
2022-12-24T21:21:47.942Z,75.16
2022-12-24T21:24:17.118Z,75.19
2022-12-24T21:26:45.454Z,75.24
2022-12-24T21:29:14.629Z,75.31
2022-12-24T21:31:43.964Z,75.22
2022-12-24T21:34:13.821Z,75.66
2022-12-24T21:36:42.676Z,75.36
2022-12-24T21:39:11.047Z,75.85
2022-12-24T21:41:39.381Z,76.16
2022-12-24T21:44:07.711Z,76.32
2022-12-24T21:46:36.269Z,76.02
2022-12-24T21:49:22.351Z,76.11
2022-12-24T21:51:52.073Z,75.83
2022-12-24T21:54:27.408Z,76.21
2022-12-24T21:57:15.855Z,76.19
2022-12-24T21:59:44.499Z,76.10
2022-12-24T22:02:14.638Z,76.16
2022-12-24T22:04:43.997Z,75.86
2022-12-24T22:07:40.001Z,76.58
2022-12-24T22:10:27.096Z,76.22
2022-12-24T22:12:56.295Z,76.50
2022-12-24T22:15:24.659Z,76.44
2022-12-24T22:17:53.240Z,76.77
2022-12-24T22:20:21.674Z,76.92
2022-12-24T22:22:51.568Z,76.97
2022-12-24T22:25:20.054Z,76.99
2022-12-24T22:27:48.450Z,77.26
2022-12-24T22:30:17.009Z,76.65
2022-12-24T22:32:45.420Z,76.60
2022-12-24T22:35:13.804Z,77.22
2022-12-24T22:37:42.170Z,77.13
2022-12-24T22:40:12.971Z,76.94
2022-12-24T22:42:41.963Z,77.01
2022-12-24T22:45:16.973Z,76.95
2022-12-24T22:47:48.734Z,76.75
2022-12-24T22:50:17.202Z,77.16
2022-12-24T22:52:45.869Z,77.24
2022-12-24T22:55:15.782Z,77.05
2022-12-24T22:57:44.101Z,76.99
2022-12-24T23:00:16.835Z,77.30
2022-12-24T23:02:45.336Z,77.13
2022-12-24T23:05:15.453Z,77.68
2022-12-24T23:07:43.925Z,77.03
2022-12-24T23:10:12.247Z,77.23
2022-12-24T23:12:59.541Z,77.24
2022-12-24T23:15:27.907Z,77.29
2022-12-24T23:17:56.274Z,77.02
2022-12-24T23:20:24.672Z,77.09
2022-12-24T23:22:53.017Z,77.78
2022-12-24T23:25:21.429Z,77.88
2022-12-24T23:27:51.255Z,77.76
2022-12-24T23:30:19.803Z,77.42
2022-12-24T23:32:48.359Z,78.24
2022-12-24T23:35:17.021Z,77.73
2022-12-24T23:37:45.348Z,77.94
2022-12-24T23:40:14.301Z,78.10
2022-12-24T23:42:42.709Z,78.67
2022-12-24T23:45:12.691Z,78.56
2022-12-24T23:47:41.488Z,78.17
2022-12-24T23:50:11.657Z,78.57
2022-12-24T23:52:40.218Z,78.67
2022-12-24T23:55:09.030Z,78.25
2022-12-24T23:57:37.442Z,78.44
